LRBS - BUCURESTI / BANEASA-AUREL VLAICU

Compiled: 21:32:25 on 19/01/2018

Latest METAR/SPECI Reports

METAR LRBS 192130Z 00000KT CAVOK 04/M01 Q1011 NOSIG=

Previous reports

METAR LRBS 192100Z VRB01KT CAVOK 04/M01 Q1011 NOSIG=
METAR LRBS 192030Z VRB02KT CAVOK 04/M01 Q1011 NOSIG=
METAR LRBS 192000Z 28004KT 260V320 CAVOK 04/M01 Q1011 NOSIG=
METAR LRBS 191930Z 27004KT 240V310 CAVOK 05/M01 Q1011 NOSIG=

Latest TAF report

TAF LRBS 191700Z 1918/2018 26007KT CAVOK PROB30 TEMPO 2003/2006 5000 BR BECMG 2010/2012 06010KT 5000 -RA BR BKN015 BKN035 TEMPO 2012/2016 3000 RA BR BKN010 OVC030 BECMG 2016/2018 3000 SNRA BKN010 OVC025=

Valid WARNINGS

No valid warnings for LRBS